createdAt,value
2023-03-01T00:02:32.025Z,6.10
2023-03-01T00:07:34.524Z,6.10
2023-03-01T00:12:37.680Z,6.30
2023-03-01T00:17:39.898Z,6.40
2023-03-01T00:22:42.047Z,6.50
2023-03-01T00:27:44.395Z,6.60
2023-03-01T00:32:46.630Z,6.60
2023-03-01T00:37:48.856Z,6.70
2023-03-01T00:42:51.530Z,6.70
2023-03-01T00:47:54.527Z,6.70
2023-03-01T00:52:57.538Z,6.50
2023-03-01T00:57:59.828Z,6.30
2023-03-01T01:03:02.064Z,6.10
2023-03-01T01:08:04.314Z,6.10
2023-03-01T01:13:06.569Z,6.00
2023-03-01T01:18:08.773Z,5.90
2023-03-01T01:23:11.085Z,5.80
2023-03-01T01:28:13.294Z,5.90
2023-03-01T01:33:15.542Z,5.70
2023-03-01T01:38:17.751Z,5.70
2023-03-01T01:48:42.029Z,5.70
2023-03-01T01:53:47.131Z,5.60
2023-03-01T01:58:49.782Z,5.60
2023-03-01T02:03:52.753Z,5.50
2023-03-01T02:08:56.262Z,5.50
2023-03-01T02:13:58.562Z,5.40
2023-03-01T02:19:01.710Z,5.40
2023-03-01T02:24:26.166Z,5.40
2023-03-01T02:29:29.569Z,5.50
2023-03-01T02:34:33.541Z,5.60
2023-03-01T02:39:43.033Z,5.60
2023-03-01T02:44:45.652Z,5.70
2023-03-01T02:49:47.872Z,5.80
2023-03-01T03:00:08.596Z,5.80
2023-03-01T03:05:16.075Z,5.90
2023-03-01T03:10:23.283Z,5.70
2023-03-01T03:15:27.124Z,5.90
2023-03-01T03:20:29.874Z,6.00
2023-03-01T03:25:32.136Z,6.10
2023-03-01T03:30:34.358Z,6.20
2023-03-01T03:35:43.400Z,6.10
2023-03-01T03:40:50.840Z,6.10
2023-03-01T03:51:15.092Z,6.20
2023-03-01T03:56:17.270Z,6.30
2023-03-01T04:01:39.709Z,6.10
2023-03-01T04:06:41.886Z,6.10
2023-03-01T04:11:44.087Z,6.00
2023-03-01T04:16:46.342Z,5.80
2023-03-01T04:21:48.728Z,5.70
2023-03-01T04:26:50.972Z,5.50
2023-03-01T04:31:53.303Z,5.30
2023-03-01T04:36:55.723Z,5.30
2023-03-01T04:41:58.146Z,5.20
2023-03-01T04:47:00.350Z,5.00
2023-03-01T04:52:05.659Z,4.80
2023-03-01T04:57:07.898Z,4.70
2023-03-01T05:02:10.054Z,4.90
2023-03-01T05:07:14.114Z,5.00
2023-03-01T05:12:16.564Z,5.10
2023-03-01T05:17:18.725Z,5.20
2023-03-01T05:22:20.895Z,5.20
2023-03-01T05:27:23.244Z,5.20
2023-03-01T05:32:25.681Z,5.20
2023-03-01T05:37:27.957Z,5.10
2023-03-01T05:42:30.187Z,5.00
2023-03-01T05:47:32.909Z,5.10
2023-03-01T05:52:35.644Z,5.00
2023-03-01T05:57:38.116Z,5.10
2023-03-01T06:02:41.397Z,5.20
2023-03-01T06:07:43.614Z,5.50
2023-03-01T06:12:45.940Z,5.50
2023-03-01T06:17:48.441Z,5.40
2023-03-01T06:22:50.934Z,5.50
2023-03-01T06:27:53.653Z,5.50
2023-03-01T06:33:01.825Z,5.70
2023-03-01T06:38:05.516Z,5.80
2023-03-01T06:43:08.674Z,5.90
2023-03-01T06:48:10.908Z,5.70
2023-03-01T06:53:13.132Z,5.80
2023-03-01T06:58:15.315Z,5.80
2023-03-01T07:03:17.526Z,5.90
2023-03-01T07:08:20.066Z,5.90
2023-03-01T07:13:22.309Z,6.00
2023-03-01T07:18:24.827Z,5.80
2023-03-01T07:23:27.027Z,6.00
2023-03-01T07:28:29.783Z,6.10
2023-03-01T07:33:32.484Z,5.80
2023-03-01T07:38:35.259Z,6.10
2023-03-01T09:01:29.525Z,6.50
2023-03-01T09:06:34.199Z,6.60
2023-03-01T09:11:36.439Z,6.40
2023-03-01T09:16:38.908Z,6.10
2023-03-01T09:21:41.800Z,5.90
2023-03-01T09:26:48.068Z,6.10
2023-03-01T09:31:51.243Z,6.10
2023-03-01T09:36:53.629Z,6.30
2023-03-01T09:42:04.064Z,6.40
2023-03-01T09:47:11.100Z,6.30
2023-03-01T10:18:37.828Z,6.50
2023-03-01T10:23:40.195Z,6.40
2023-03-01T10:33:56.014Z,6.50
2023-03-01T10:38:59.168Z,6.90
2023-03-01T10:44:01.490Z,7.00
2023-03-01T10:54:29.052Z,7.00
2023-03-01T11:10:13.684Z,6.60
2023-03-01T11:15:27.321Z,6.90
2023-03-01T11:20:36.653Z,6.90
2023-03-01T11:25:42.999Z,7.00
2023-03-01T11:36:06.752Z,7.10
2023-03-01T12:51:04.194Z,7.30
2023-03-01T12:56:13.052Z,7.40
2023-03-01T13:11:52.242Z,7.30
2023-03-01T13:16:55.733Z,7.40
2023-03-01T13:21:57.992Z,7.50
2023-03-01T13:32:44.934Z,7.70
2023-03-01T13:37:47.942Z,7.80
2023-03-01T13:43:04.279Z,7.90
2023-03-01T13:48:29.139Z,7.80
2023-03-01T13:53:36.370Z,7.50
2023-03-01T13:59:00.653Z,7.50
2023-03-01T14:04:04.920Z,7.60
2023-03-01T14:19:35.184Z,7.60
2023-03-01T14:24:41.468Z,7.70
2023-03-01T14:29:43.771Z,7.80
2023-03-01T14:34:49.311Z,7.90
2023-03-01T14:39:52.280Z,7.80
2023-03-01T14:44:57.207Z,7.80
2023-03-01T14:50:05.228Z,7.60
2023-03-01T14:55:19.478Z,7.40
2023-03-01T15:00:25.858Z,7.10
2023-03-01T15:05:33.973Z,6.90
2023-03-01T15:10:38.154Z,6.80
2023-03-01T15:15:44.337Z,6.70
2023-03-01T15:20:48.446Z,6.60
2023-03-01T15:25:57.644Z,6.60
2023-03-01T15:31:04.498Z,6.50
2023-03-01T15:41:49.662Z,6.40
2023-03-01T15:46:52.180Z,6.40
2023-03-01T15:51:56.462Z,6.50
2023-03-01T15:56:59.065Z,6.70
2023-03-01T16:02:01.443Z,6.90
2023-03-01T16:07:03.903Z,7.20
2023-03-01T16:12:10.186Z,7.10
2023-03-01T16:28:33.004Z,6.90
2023-03-01T16:34:01.215Z,6.70
2023-03-01T16:39:04.316Z,6.80
2023-03-01T16:44:06.606Z,6.70
2023-03-01T16:49:08.839Z,6.70
2023-03-01T16:54:11.931Z,6.70
2023-03-01T16:59:14.502Z,6.90
2023-03-01T17:04:17.769Z,7.00
2023-03-01T17:09:23.038Z,7.30
2023-03-01T17:14:25.360Z,7.40
2023-03-01T17:19:27.732Z,7.50
2023-03-01T17:24:34.202Z,7.60
2023-03-01T17:29:36.463Z,7.80
2023-03-01T17:34:38.724Z,7.80
2023-03-01T17:39:41.205Z,7.90
2023-03-01T17:44:43.905Z,8.00
2023-03-01T17:49:46.245Z,8.10
2023-03-01T17:54:48.559Z,8.10
2023-03-01T17:59:50.761Z,8.30
2023-03-01T18:04:53.789Z,7.90
2023-03-01T18:09:56.597Z,7.50
2023-03-01T18:14:58.802Z,7.10
2023-03-01T18:20:01.049Z,6.70
2023-03-01T18:25:03.754Z,6.50
2023-03-01T18:30:08.046Z,6.30
2023-03-01T18:35:10.344Z,6.10
2023-03-01T18:40:14.090Z,6.10
2023-03-01T18:45:17.872Z,6.20
2023-03-01T18:50:20.298Z,6.20
2023-03-01T18:55:22.513Z,6.30
2023-03-01T19:00:25.004Z,6.50
2023-03-01T19:05:28.535Z,6.50
2023-03-01T19:10:31.822Z,6.60
2023-03-01T19:15:34.102Z,6.50
2023-03-01T19:20:37.798Z,6.70
2023-03-01T19:25:41.130Z,6.70
2023-03-01T19:30:43.429Z,6.70
2023-03-01T19:35:45.864Z,6.90
2023-03-01T19:40:48.089Z,7.10
2023-03-01T19:45:53.494Z,7.20
2023-03-01T19:50:56.270Z,7.40
2023-03-01T19:56:00.258Z,7.30
2023-03-01T20:01:02.599Z,7.30
2023-03-01T20:06:11.288Z,7.30
2023-03-01T20:11:15.003Z,7.10
2023-03-01T20:16:20.074Z,7.00
2023-03-01T20:21:24.772Z,7.00
2023-03-01T20:26:28.571Z,6.90
2023-03-01T20:31:30.857Z,7.00
2023-03-01T20:36:34.270Z,6.50
2023-03-01T20:41:36.846Z,6.90
2023-03-01T20:46:39.707Z,6.90
2023-03-01T20:51:42.334Z,7.00
2023-03-01T20:56:44.599Z,7.00
2023-03-01T21:01:46.836Z,7.10
2023-03-01T21:06:49.113Z,7.20
2023-03-01T21:11:51.428Z,7.20
2023-03-01T21:16:53.726Z,7.30
2023-03-01T21:21:55.995Z,7.40
2023-03-01T21:26:58.304Z,7.50
2023-03-01T21:32:01.658Z,7.50
2023-03-01T21:37:06.414Z,7.50
2023-03-01T21:42:08.638Z,7.50
2023-03-01T21:47:10.986Z,7.40
2023-03-01T21:52:16.792Z,7.50
2023-03-01T21:57:19.366Z,7.50
2023-03-01T22:02:21.735Z,7.50
2023-03-01T22:07:24.086Z,7.50
2023-03-01T22:12:26.344Z,7.40
2023-03-01T22:17:28.856Z,7.30
2023-03-01T22:22:31.105Z,7.30
2023-03-01T22:27:33.583Z,7.40
2023-03-01T22:32:36.058Z,7.40
2023-03-01T22:37:38.769Z,7.40
2023-03-01T22:42:40.962Z,7.10
2023-03-01T22:47:43.244Z,7.20
2023-03-01T22:52:45.474Z,7.00
2023-03-01T22:57:51.952Z,7.10
2023-03-01T23:02:54.243Z,7.10
2023-03-01T23:07:56.565Z,7.20
2023-03-01T23:12:58.798Z,7.30
2023-03-01T23:18:01.061Z,7.30
2023-03-01T23:23:03.928Z,7.20
2023-03-01T23:28:06.276Z,7.10
2023-03-01T23:33:08.565Z,7.00
2023-03-01T23:38:10.773Z,6.80
2023-03-01T23:43:13.343Z,6.60
2023-03-01T23:48:15.579Z,6.90
2023-03-01T23:53:19.600Z,6.90
2023-03-01T23:58:28.427Z,7.00
